createdAt,value
2022-08-20T00:02:17.145Z,98546.58
2022-08-20T00:04:45.324Z,98549.66
2022-08-20T00:07:15.785Z,98553.22
2022-08-20T00:09:46.335Z,98550.02
2022-08-20T00:12:17.809Z,98553.74
2022-08-20T00:14:46.756Z,98560.09
2022-08-20T00:17:14.636Z,98564.58
2022-08-20T00:19:42.413Z,98571.00
2022-08-20T00:22:10.216Z,98572.82
2022-08-20T00:24:38.185Z,98574.16
2022-08-20T00:27:06.320Z,98575.27
2022-08-20T00:29:34.105Z,98573.67
2022-08-20T00:32:01.956Z,98570.86
2022-08-20T00:34:31.172Z,98574.84
2022-08-20T00:36:58.885Z,98574.80
2022-08-20T00:39:28.041Z,98575.89
2022-08-20T00:41:55.806Z,98578.77
2022-08-20T00:44:23.701Z,98579.13
2022-08-20T00:46:53.952Z,98584.91
2022-08-20T00:49:26.587Z,98584.13
2022-08-20T00:52:12.683Z,98579.60
2022-08-20T00:54:50.746Z,98572.27
2022-08-20T00:57:27.025Z,98568.06
2022-08-20T01:00:15.915Z,98567.85
2022-08-20T01:02:46.644Z,98565.63
2022-08-20T01:05:19.613Z,98559.45
2022-08-20T01:07:48.610Z,98547.31
2022-08-20T01:10:29.871Z,98539.06
2022-08-20T01:13:03.472Z,98534.85
2022-08-20T01:15:31.995Z,98532.98
2022-08-20T01:18:02.356Z,98532.98
2022-08-20T01:20:54.456Z,98537.43
2022-08-20T01:23:33.419Z,98539.98
2022-08-20T01:26:10.344Z,98536.96
2022-08-20T01:28:44.483Z,98536.34
2022-08-20T01:31:17.259Z,98531.91
2022-08-20T01:33:49.964Z,98529.05
2022-08-20T01:36:23.088Z,98530.17
2022-08-20T01:38:54.568Z,98527.89
2022-08-20T01:41:32.968Z,98524.08
2022-08-20T01:44:04.403Z,98521.11
2022-08-20T01:46:38.924Z,98520.88
2022-08-20T01:49:35.392Z,98527.43
2022-08-20T01:52:08.814Z,98532.96
2022-08-20T01:54:36.578Z,98538.77
2022-08-20T01:57:17.459Z,98538.00
2022-08-20T01:59:48.898Z,98533.34
2022-08-20T02:02:18.430Z,98529.00
2022-08-20T02:04:46.189Z,98527.25
2022-08-20T02:07:21.657Z,98531.05
2022-08-20T02:09:51.137Z,98537.65
2022-08-20T02:12:20.481Z,98541.52
2022-08-20T02:14:52.263Z,98542.52
2022-08-20T02:17:23.518Z,98543.59
2022-08-20T02:20:00.182Z,98543.34
2022-08-20T02:22:50.375Z,98552.45
2022-08-20T02:25:22.892Z,98555.59
2022-08-20T02:27:53.505Z,98559.88
2022-08-20T02:30:28.476Z,98565.19
2022-08-20T02:32:58.106Z,98565.42
2022-08-20T02:35:27.929Z,98562.16
2022-08-20T02:37:57.512Z,98568.05
2022-08-20T02:40:31.168Z,98564.50
2022-08-20T02:43:02.935Z,98567.54
2022-08-20T02:45:37.381Z,98563.29
2022-08-20T02:48:06.559Z,98565.09
2022-08-20T02:50:34.567Z,98555.36
2022-08-20T02:53:02.830Z,98552.00
2022-08-20T02:55:31.072Z,98547.30
2022-08-20T02:58:02.175Z,98539.58
2022-08-20T03:00:38.336Z,98534.39
2022-08-20T03:03:11.172Z,98532.20
2022-08-20T03:05:41.870Z,98533.36
2022-08-20T03:08:14.988Z,98538.16
2022-08-20T03:10:46.306Z,98541.31
2022-08-20T03:13:16.682Z,98537.84
2022-08-20T03:15:48.928Z,98548.09
2022-08-20T03:18:19.943Z,98541.48
2022-08-20T03:20:52.152Z,98542.73
2022-08-20T03:23:22.303Z,98536.91
2022-08-20T03:25:50.215Z,98532.36
2022-08-20T03:28:20.012Z,98529.20
2022-08-20T03:30:51.561Z,98528.55
2022-08-20T03:33:21.497Z,98533.96
2022-08-20T03:35:49.388Z,98533.77
2022-08-20T03:38:21.556Z,98529.45
2022-08-20T03:41:04.542Z,98526.54
2022-08-20T03:43:33.684Z,98527.50
2022-08-20T03:46:03.560Z,98537.77
2022-08-20T03:48:31.493Z,98541.36
2022-08-20T03:51:01.109Z,98543.81
2022-08-20T03:53:33.321Z,98546.84
2022-08-20T03:56:05.600Z,98545.05
2022-08-20T03:58:36.701Z,98541.60
2022-08-20T04:01:07.270Z,98533.70
2022-08-20T04:03:36.771Z,98530.98
2022-08-20T04:06:05.612Z,98531.73
2022-08-20T04:08:33.434Z,98532.92
2022-08-20T04:11:01.282Z,98537.68
2022-08-20T04:13:31.490Z,98541.27
2022-08-20T04:16:11.246Z,98551.86
2022-08-20T04:18:56.096Z,98558.91
2022-08-20T04:21:36.224Z,98572.09
2022-08-20T04:24:05.783Z,98576.52
2022-08-20T04:26:38.245Z,98578.21
2022-08-20T04:29:06.056Z,98579.12
2022-08-20T04:31:35.409Z,98574.05
2022-08-20T04:34:08.381Z,98575.17
2022-08-20T04:36:37.388Z,98579.08
2022-08-20T04:39:05.228Z,98581.89
2022-08-20T04:41:32.976Z,98579.85
2022-08-20T04:44:01.983Z,98580.39
2022-08-20T04:46:32.741Z,98581.38
2022-08-20T04:49:04.687Z,98587.02
2022-08-20T04:51:34.378Z,98591.94
2022-08-20T04:54:05.318Z,98591.75
2022-08-20T04:56:40.701Z,98590.03
2022-08-20T04:59:08.619Z,98589.09
2022-08-20T05:01:36.609Z,98587.47
2022-08-20T05:04:06.471Z,98580.20
2022-08-20T05:06:35.465Z,98578.59
2022-08-20T05:09:06.071Z,98573.23
2022-08-20T05:11:37.053Z,98568.77
2022-08-20T05:14:11.505Z,98566.31
2022-08-20T05:16:41.020Z,98561.80
2022-08-20T05:19:12.628Z,98557.02
2022-08-20T05:21:41.747Z,98553.83
2022-08-20T05:24:12.310Z,98551.39
2022-08-20T05:26:42.787Z,98552.84
2022-08-20T05:29:10.608Z,98553.05
2022-08-20T05:31:40.379Z,98546.71
2022-08-20T05:34:12.962Z,98541.20
2022-08-20T05:36:49.639Z,98538.83
2022-08-20T05:39:21.616Z,98531.27
2022-08-20T05:41:50.985Z,98526.36
2022-08-20T05:44:20.866Z,98521.92
2022-08-20T05:46:48.791Z,98520.67
2022-08-20T05:49:22.685Z,98511.82
2022-08-20T05:51:53.668Z,98513.66
2022-08-20T05:54:24.875Z,98523.20
2022-08-20T05:56:52.813Z,98532.48
2022-08-20T05:59:24.283Z,98544.28
2022-08-20T06:01:54.229Z,98560.92
2022-08-20T06:04:25.062Z,98572.41
2022-08-20T06:07:05.127Z,98582.23
2022-08-20T06:09:36.130Z,98586.19
2022-08-20T06:12:08.472Z,98582.41
2022-08-20T06:14:36.467Z,98577.82
2022-08-20T06:17:09.450Z,98566.89
2022-08-20T06:19:42.739Z,98557.44
2022-08-20T06:22:19.787Z,98551.84
2022-08-20T06:24:57.075Z,98539.81
2022-08-20T06:27:24.868Z,98537.86
2022-08-20T06:29:53.985Z,98542.14
2022-08-20T06:32:32.158Z,98549.06
2022-08-20T06:35:06.001Z,98552.73
2022-08-20T06:37:38.473Z,98559.29
2022-08-20T06:40:17.543Z,98558.53
2022-08-20T06:42:48.764Z,98555.04
2022-08-20T06:45:25.729Z,98558.88
2022-08-20T06:47:59.488Z,98561.56
2022-08-20T06:50:44.458Z,98562.49
2022-08-20T06:53:20.972Z,98566.73
2022-08-20T06:55:54.092Z,98568.63
2022-08-20T06:58:36.889Z,98565.90
2022-08-20T07:01:11.639Z,98564.52
2022-08-20T07:03:55.531Z,98562.98
2022-08-20T07:06:27.101Z,98565.92
2022-08-20T07:08:56.437Z,98562.48
2022-08-20T07:11:28.410Z,98558.98
2022-08-20T07:14:00.439Z,98551.39
2022-08-20T07:16:30.764Z,98541.14
2022-08-20T07:18:59.731Z,98541.89
2022-08-20T07:21:27.648Z,98541.61
2022-08-20T07:23:55.447Z,98540.01
2022-08-20T07:26:23.423Z,98539.88
2022-08-20T07:28:51.549Z,98545.05
2022-08-20T07:31:39.056Z,98541.87
2022-08-20T07:34:12.447Z,98537.00
2022-08-20T07:36:41.439Z,98534.75
2022-08-20T07:39:09.461Z,98537.20
2022-08-20T07:41:37.225Z,98538.04
2022-08-20T07:44:04.945Z,98536.00
2022-08-20T07:46:33.887Z,98536.27
2022-08-20T07:49:01.735Z,98537.27
2022-08-20T07:51:29.589Z,98535.53
2022-08-20T07:53:59.355Z,98535.31
2022-08-20T07:56:27.976Z,98531.80
2022-08-20T07:59:00.147Z,98524.23
2022-08-20T08:01:31.941Z,98517.58
2022-08-20T08:04:02.750Z,98515.69
2022-08-20T08:06:32.268Z,98516.41
2022-08-20T08:09:13.218Z,98516.55
2022-08-20T08:11:50.089Z,98518.93
2022-08-20T08:14:27.086Z,98519.65
2022-08-20T08:16:59.095Z,98520.30
2022-08-20T08:19:35.366Z,98523.73
2022-08-20T08:22:04.564Z,98521.64
2022-08-20T08:24:32.507Z,98517.93
2022-08-20T08:27:01.528Z,98516.79
2022-08-20T08:29:29.603Z,98519.60
2022-08-20T08:31:57.322Z,98520.64
2022-08-20T08:34:26.853Z,98522.93
2022-08-20T08:36:54.674Z,98522.45
2022-08-20T08:39:26.238Z,98523.13
2022-08-20T08:42:07.101Z,98524.49
2022-08-20T08:44:43.000Z,98521.07
2022-08-20T08:47:21.736Z,98523.63
2022-08-20T08:49:51.122Z,98527.59
2022-08-20T08:52:32.394Z,98526.02
2022-08-20T08:55:08.073Z,98533.52
2022-08-20T08:57:37.080Z,98526.34
2022-08-20T09:00:14.348Z,98525.05
2022-08-20T09:02:59.632Z,98520.73
2022-08-20T09:05:53.293Z,98521.58
2022-08-20T09:08:37.206Z,98520.16
2022-08-20T09:11:09.340Z,98518.29
2022-08-20T09:13:37.449Z,98518.58
2022-08-20T09:16:05.261Z,98515.11
2022-08-20T09:18:33.109Z,98510.84
2022-08-20T09:21:01.000Z,98512.98
2022-08-20T09:23:28.822Z,98511.42
2022-08-20T09:25:57.837Z,98514.16
2022-08-20T09:28:32.332Z,98516.42
2022-08-20T09:31:05.715Z,98515.05
2022-08-20T09:33:35.789Z,98513.67
2022-08-20T09:36:03.957Z,98511.31
2022-08-20T09:38:53.757Z,98512.95
2022-08-20T09:41:23.577Z,98509.21
2022-08-20T09:43:51.383Z,98515.77
2022-08-20T09:46:19.159Z,98508.77
2022-08-20T09:48:49.007Z,98508.65
2022-08-20T09:51:17.866Z,98505.96
2022-08-20T09:53:46.671Z,98506.77
2022-08-20T09:56:14.709Z,98509.90
2022-08-20T09:58:50.393Z,98506.98
2022-08-20T10:01:22.476Z,98504.13
2022-08-20T10:03:52.700Z,98499.86
2022-08-20T10:06:21.656Z,98498.79
2022-08-20T10:08:51.340Z,98501.98
2022-08-20T10:11:21.105Z,98502.92
2022-08-20T10:13:49.204Z,98500.05
2022-08-20T10:16:16.925Z,98494.35
2022-08-20T10:18:44.736Z,98491.85
2022-08-20T10:21:13.611Z,98486.30
2022-08-20T10:23:42.850Z,98485.85
2022-08-20T10:26:13.174Z,98476.09
2022-08-20T10:28:42.467Z,98472.88
2022-08-20T10:31:12.761Z,98472.04
2022-08-20T10:33:42.269Z,98467.25
2022-08-20T10:36:16.298Z,98464.48
2022-08-20T10:38:46.232Z,98464.68
2022-08-20T10:41:14.015Z,98459.12
2022-08-20T10:43:42.891Z,98465.29
2022-08-20T10:46:13.876Z,98464.83
2022-08-20T10:48:42.788Z,98466.89
2022-08-20T10:51:10.621Z,98465.73
2022-08-20T10:53:41.623Z,98467.16
2022-08-20T10:56:13.801Z,98462.73
2022-08-20T10:58:44.611Z,98457.25
2022-08-20T11:01:12.545Z,98456.27
2022-08-20T11:04:00.134Z,98454.79
2022-08-20T11:06:27.876Z,98456.15
2022-08-20T11:08:57.003Z,98462.23
2022-08-20T11:11:24.966Z,98454.58
2022-08-20T11:13:52.748Z,98448.17
2022-08-20T11:16:20.495Z,98451.36
2022-08-20T11:18:50.554Z,98445.08
2022-08-20T11:21:18.391Z,98441.16
2022-08-20T11:23:46.539Z,98439.50
2022-08-20T11:26:22.392Z,98439.32
2022-08-20T11:28:51.311Z,98435.35
2022-08-20T11:31:19.079Z,98432.48
2022-08-20T11:33:46.812Z,98432.51
2022-08-20T11:36:14.630Z,98428.86
2022-08-20T11:38:42.383Z,98428.30
2022-08-20T11:41:10.359Z,98418.71
2022-08-20T11:43:38.065Z,98424.73
2022-08-20T11:46:05.988Z,98425.63
2022-08-20T11:48:33.787Z,98426.90
2022-08-20T11:51:01.563Z,98424.77
2022-08-20T11:53:30.980Z,98420.80
2022-08-20T11:56:03.833Z,98417.67
2022-08-20T11:58:35.300Z,98415.40
2022-08-20T12:01:03.027Z,98413.19
2022-08-20T12:03:32.548Z,98411.61
2022-08-20T12:06:00.404Z,98412.27
2022-08-20T12:08:29.491Z,98411.73
2022-08-20T12:10:59.976Z,98407.95
2022-08-20T12:13:48.570Z,98406.69
2022-08-20T12:16:20.021Z,98403.14
2022-08-20T12:18:49.869Z,98399.84
2022-08-20T12:21:18.773Z,98395.98
2022-08-20T12:23:46.572Z,98389.36
2022-08-20T12:26:18.275Z,98386.72
2022-08-20T12:28:46.051Z,98386.66
2022-08-20T12:31:13.853Z,98383.95
2022-08-20T12:33:41.672Z,98384.16
2022-08-20T12:36:12.602Z,98377.33
2022-08-20T12:38:40.437Z,98370.95
2022-08-20T12:41:10.091Z,98364.41
2022-08-20T12:43:37.869Z,98364.20
2022-08-20T12:46:05.903Z,98364.83
2022-08-20T12:48:33.697Z,98362.02
2022-08-20T12:51:01.635Z,98360.32
2022-08-20T12:53:32.284Z,98360.26
2022-08-20T12:56:06.957Z,98363.50
2022-08-20T12:58:35.496Z,98371.38
2022-08-20T13:01:04.777Z,98373.11
2022-08-20T13:03:34.612Z,98386.16
2022-08-20T13:06:12.655Z,98390.72
2022-08-20T13:08:41.906Z,98391.09
2022-08-20T13:11:09.848Z,98389.80
2022-08-20T13:13:38.339Z,98390.02
2022-08-20T13:16:06.243Z,98387.70
2022-08-20T13:18:35.347Z,98394.97
2022-08-20T13:21:04.563Z,98395.51
2022-08-20T13:23:33.880Z,98398.61
2022-08-20T13:26:01.884Z,98405.52
2022-08-20T13:28:31.646Z,98405.76
2022-08-20T13:31:03.588Z,98406.94
2022-08-20T13:33:32.754Z,98397.65
2022-08-20T13:36:02.651Z,98396.37
2022-08-20T13:38:31.853Z,98391.64
2022-08-20T13:40:59.733Z,98392.98
2022-08-20T13:43:29.537Z,98390.66
2022-08-20T13:46:00.284Z,98394.59
2022-08-20T13:48:28.045Z,98397.30
2022-08-20T13:50:55.909Z,98395.41
2022-08-20T13:53:24.059Z,98399.05
2022-08-20T13:55:52.797Z,98395.21
2022-08-20T13:58:23.196Z,98394.28
2022-08-20T14:00:53.412Z,98393.90
2022-08-20T14:03:25.438Z,98397.70
2022-08-20T14:05:54.333Z,98396.57
2022-08-20T14:08:24.828Z,98391.86
2022-08-20T14:10:54.536Z,98401.33
2022-08-20T14:13:24.403Z,98396.01
2022-08-20T14:15:52.873Z,98393.48
2022-08-20T14:18:20.867Z,98391.27
2022-08-20T14:20:49.281Z,98378.77
2022-08-20T14:23:18.238Z,98378.48
2022-08-20T14:25:50.276Z,98378.21
2022-08-20T14:28:21.947Z,98377.45
2022-08-20T14:30:53.502Z,98375.73
2022-08-20T14:33:25.568Z,98373.95
2022-08-20T14:35:55.671Z,98372.09
2022-08-20T14:38:23.650Z,98373.06
2022-08-20T14:40:52.619Z,98377.92
2022-08-20T14:43:20.402Z,98371.06
2022-08-20T14:45:49.174Z,98366.77
2022-08-20T14:48:19.430Z,98364.13
2022-08-20T14:50:47.294Z,98363.33
2022-08-20T14:53:17.108Z,98364.85
2022-08-20T14:55:46.074Z,98366.17
2022-08-20T14:58:17.959Z,98364.84
2022-08-20T15:00:46.956Z,98365.33
2022-08-20T15:03:16.173Z,98364.98
2022-08-20T15:05:44.133Z,98367.93
2022-08-20T15:08:11.977Z,98362.64
2022-08-20T15:10:43.788Z,98361.53
2022-08-20T15:13:11.554Z,98369.16
2022-08-20T15:15:41.195Z,98372.52
2022-08-20T15:18:12.154Z,98373.21
2022-08-20T15:20:42.282Z,98374.91
2022-08-20T15:23:12.390Z,98374.84
2022-08-20T15:25:42.612Z,98378.88
2022-08-20T15:28:13.314Z,98377.55
2022-08-20T15:30:44.284Z,98379.95
2022-08-20T15:33:13.257Z,98382.14
2022-08-20T15:35:43.141Z,98383.42
2022-08-20T15:38:13.320Z,98377.97
2022-08-20T15:40:43.903Z,98379.27
2022-08-20T15:43:11.877Z,98379.23
2022-08-20T15:45:41.872Z,98380.33
2022-08-20T15:48:12.455Z,98383.73
2022-08-20T15:51:00.603Z,98382.67
2022-08-20T15:53:53.460Z,98381.61
2022-08-20T15:56:40.155Z,98384.27
2022-08-20T15:59:27.093Z,98380.33
2022-08-20T16:02:07.862Z,98382.25
2022-08-20T16:04:52.925Z,98384.42
2022-08-20T16:07:32.624Z,98387.14
2022-08-20T16:10:27.999Z,98387.41
2022-08-20T16:13:02.516Z,98387.80
2022-08-20T16:15:39.479Z,98384.42
2022-08-20T16:18:22.080Z,98387.64
2022-08-20T16:20:54.219Z,98384.63
2022-08-20T16:23:36.749Z,98379.98
2022-08-20T16:26:14.374Z,98383.11
2022-08-20T16:29:11.376Z,98383.70
2022-08-20T16:31:53.593Z,98385.13
2022-08-20T16:34:34.937Z,98386.31
2022-08-20T16:37:16.629Z,98388.44
2022-08-20T16:40:19.612Z,98389.09
2022-08-20T16:42:51.500Z,98389.36
2022-08-20T16:45:26.152Z,98387.64
2022-08-20T16:47:59.029Z,98390.98
2022-08-20T16:50:39.713Z,98394.77
2022-08-20T16:53:17.582Z,98399.60
2022-08-20T16:55:46.014Z,98402.71
2022-08-20T16:58:14.454Z,98410.96
2022-08-20T17:00:45.454Z,98410.14
2022-08-20T17:03:33.546Z,98416.64
2022-08-20T17:06:35.408Z,98419.44
2022-08-20T17:09:14.937Z,98429.13
2022-08-20T17:11:49.457Z,98435.27
2022-08-20T17:14:19.473Z,98439.20
2022-08-20T17:16:51.597Z,98441.91
2022-08-20T17:19:19.323Z,98442.80
2022-08-20T17:21:49.814Z,98443.54
2022-08-20T17:24:32.116Z,98444.62
2022-08-20T17:27:05.198Z,98446.39
2022-08-20T17:29:54.702Z,98447.52
2022-08-20T17:32:29.121Z,98454.66
2022-08-20T17:35:02.685Z,98457.95
2022-08-20T17:37:40.707Z,98458.52
2022-08-20T17:40:20.461Z,98462.73
2022-08-20T17:43:05.134Z,98459.42
2022-08-20T17:45:44.965Z,98461.58
2022-08-20T17:48:20.247Z,98465.88
2022-08-20T17:50:49.988Z,98465.66
2022-08-20T17:53:30.489Z,98465.88
2022-08-20T17:56:16.177Z,98460.48
2022-08-20T17:59:03.174Z,98454.95
2022-08-20T18:01:32.206Z,98456.91
2022-08-20T18:04:01.432Z,98452.61
2022-08-20T18:06:58.872Z,98450.88
2022-08-20T18:09:38.419Z,98448.91
2022-08-20T18:12:33.848Z,98447.06
2022-08-20T18:15:26.228Z,98452.53
2022-08-20T18:18:12.939Z,98449.91
2022-08-20T18:21:20.717Z,98454.13
2022-08-20T18:24:08.756Z,98449.95
2022-08-20T18:26:46.669Z,98446.09
2022-08-20T18:29:20.158Z,98444.05
2022-08-20T18:31:54.974Z,98445.42
2022-08-20T18:34:37.538Z,98444.48
2022-08-20T18:37:14.628Z,98445.09
2022-08-20T18:39:48.352Z,98444.77
2022-08-20T18:42:27.200Z,98443.61
2022-08-20T18:44:57.857Z,98445.11
2022-08-20T18:47:34.771Z,98442.44
2022-08-20T18:50:25.323Z,98439.73
2022-08-20T18:53:08.869Z,98436.97
2022-08-20T18:55:43.021Z,98441.20
2022-08-20T18:58:31.121Z,98441.98
2022-08-20T19:01:02.004Z,98438.58
2022-08-20T19:03:35.999Z,98439.71
2022-08-20T19:06:15.647Z,98435.28
2022-08-20T19:08:48.039Z,98436.67
2022-08-20T19:11:41.033Z,98432.18
2022-08-20T19:14:27.774Z,98433.05
2022-08-20T19:17:10.889Z,98432.27
2022-08-20T19:19:39.250Z,98434.06
2022-08-20T19:22:07.934Z,98428.66
2022-08-20T19:24:44.446Z,98431.02
2022-08-20T19:27:13.372Z,98428.96
2022-08-20T19:29:47.855Z,98428.23
2022-08-20T19:32:24.378Z,98428.20
2022-08-20T19:34:58.908Z,98425.48
2022-08-20T19:37:44.448Z,98428.72
2022-08-20T19:40:43.613Z,98425.98
2022-08-20T19:43:18.619Z,98426.91
2022-08-20T19:45:50.768Z,98429.41
2022-08-20T19:48:41.808Z,98432.45
2022-08-20T19:51:09.690Z,98429.89
2022-08-20T19:53:45.628Z,98428.60
2022-08-20T19:56:19.735Z,98430.86
2022-08-20T19:59:04.675Z,98427.06
2022-08-20T20:01:34.229Z,98430.50
2022-08-20T20:04:08.213Z,98435.16
2022-08-20T20:06:48.905Z,98434.32
2022-08-20T20:09:22.463Z,98434.78
2022-08-20T20:11:55.495Z,98434.48
2022-08-20T20:14:28.451Z,98430.02
2022-08-20T20:16:58.574Z,98432.00
2022-08-20T20:19:28.263Z,98436.04
2022-08-20T20:22:19.895Z,98440.73
2022-08-20T20:25:00.127Z,98443.61
2022-08-20T20:27:29.356Z,98439.99
2022-08-20T20:30:05.828Z,98429.69
2022-08-20T20:32:34.202Z,98428.73
2022-08-20T20:35:06.276Z,98426.60
2022-08-20T20:37:49.677Z,98431.35
2022-08-20T20:40:33.992Z,98428.55
2022-08-20T20:43:09.118Z,98427.06
2022-08-20T20:45:43.756Z,98424.36
2022-08-20T20:48:25.297Z,98422.97
2022-08-20T20:50:56.400Z,98419.80
2022-08-20T20:53:48.418Z,98419.29
2022-08-20T20:56:34.772Z,98421.11
2022-08-20T20:59:06.989Z,98423.06
2022-08-20T21:01:41.229Z,98419.48
2022-08-20T21:04:19.265Z,98416.95
2022-08-20T21:06:48.289Z,98412.97
2022-08-20T21:09:17.427Z,98411.27
2022-08-20T21:11:46.034Z,98410.04
2022-08-20T21:14:14.163Z,98407.52
2022-08-20T21:16:43.750Z,98408.25
2022-08-20T21:19:12.675Z,98408.73
2022-08-20T21:21:41.532Z,98406.55
2022-08-20T21:24:09.980Z,98400.61
2022-08-20T21:26:39.602Z,98396.83
2022-08-20T21:29:10.582Z,98390.61
2022-08-20T21:31:43.649Z,98386.54
2022-08-20T21:34:14.756Z,98389.24
2022-08-20T21:36:42.791Z,98396.16
2022-08-20T21:39:11.302Z,98399.23
2022-08-20T21:41:42.592Z,98395.08
2022-08-20T21:44:26.211Z,98393.96
2022-08-20T21:46:55.584Z,98393.63
2022-08-20T21:49:25.193Z,98396.48
2022-08-20T21:51:53.981Z,98399.55
2022-08-20T21:54:23.180Z,98402.36
2022-08-20T21:57:03.062Z,98405.38
2022-08-20T21:59:31.695Z,98398.17
2022-08-20T22:02:01.414Z,98400.91
2022-08-20T22:04:32.307Z,98403.17
2022-08-20T22:07:05.290Z,98403.80
2022-08-20T22:09:34.233Z,98402.66
2022-08-20T22:12:03.025Z,98399.45
2022-08-20T22:14:31.401Z,98397.66
2022-08-20T22:16:59.359Z,98398.02
2022-08-20T22:19:27.264Z,98400.31
2022-08-20T22:21:56.738Z,98404.02
2022-08-20T22:24:28.882Z,98407.94
2022-08-20T22:26:56.890Z,98411.27
2022-08-20T22:29:25.029Z,98410.20
2022-08-20T22:31:53.426Z,98411.05
2022-08-20T22:34:22.076Z,98414.23
2022-08-20T22:36:53.443Z,98417.52
2022-08-20T22:39:21.481Z,98419.82
2022-08-20T22:41:50.146Z,98422.29
2022-08-20T22:44:17.965Z,98426.34
2022-08-20T22:46:48.953Z,98427.70
2022-08-20T22:49:24.598Z,98426.39
2022-08-20T22:51:52.930Z,98425.27
2022-08-20T22:54:25.145Z,98422.15
2022-08-20T22:56:55.219Z,98426.17
2022-08-20T22:59:24.254Z,98427.55
2022-08-20T23:01:53.061Z,98425.98
2022-08-20T23:04:33.060Z,98421.73
2022-08-20T23:07:04.277Z,98417.23
2022-08-20T23:09:32.490Z,98418.55
2022-08-20T23:12:00.827Z,98420.02
2022-08-20T23:14:29.441Z,98422.21
2022-08-20T23:17:13.427Z,98419.40
2022-08-20T23:19:46.344Z,98422.05
2022-08-20T23:22:15.351Z,98417.73
2022-08-20T23:24:43.542Z,98417.15
2022-08-20T23:27:15.945Z,98420.05
2022-08-20T23:29:45.234Z,98419.84
2022-08-20T23:32:14.270Z,98416.35
2022-08-20T23:34:42.465Z,98417.41
2022-08-20T23:37:11.766Z,98419.15
2022-08-20T23:39:39.879Z,98415.13
2022-08-20T23:42:08.123Z,98406.00
2022-08-20T23:44:36.220Z,98408.31
2022-08-20T23:47:04.880Z,98407.05
2022-08-20T23:49:33.271Z,98406.36
2022-08-20T23:52:02.186Z,98408.77
2022-08-20T23:54:33.495Z,98410.90
2022-08-20T23:57:01.907Z,98414.77
2022-08-20T23:59:36.426Z,98416.19
